Time;durP1;ratioP1;P1;durP2;ratioP2;P2;SDS_P1;SDS_P2;PMS_P1;PMS_P2;Temp;Humidity;BMP_temperature;BMP_pressure;BME280_temperature;BME280_humidity;BME280_pressure;Samples;Min_cycle;Max_cycle;Signal;HPM_P1;HPM_P2
2023/02/09 00:00:16;;;;;;;26.88;13.25;;;;;;;-1.37;100.00;103023.97;5085651;28;20028;-84
2023/02/09 00:02:41;;;;;;;26.00;12.82;;;;;;;-1.39;100.00;103024.63;5085969;28;20035;-88
2023/02/09 00:05:08;;;;;;;25.60;12.75;;;;;;;-1.38;100.00;103026.44;5084374;28;20029;-86
2023/02/09 00:07:33;;;;;;;25.83;12.65;;;;;;;-1.44;100.00;103022.53;5086592;28;20055;-88
2023/02/09 00:09:58;;;;;;;25.33;13.70;;;;;;;-1.44;100.00;103019.94;5083804;28;20463;-89
2023/02/09 00:15:08;;;;;;;25.65;12.82;;;;;;;-1.58;100.00;103030.78;5084524;28;20051;-89
2023/02/09 00:17:34;;;;;;;25.42;12.70;;;;;;;-1.57;100.00;103037.81;5067357;28;20543;-87
2023/02/09 00:20:04;;;;;;;26.30;12.93;;;;;;;-1.56;100.00;103030.91;5086977;28;20059;-86
2023/02/09 00:22:30;;;;;;;25.73;12.70;;;;;;;-1.54;100.00;103030.28;5086013;28;20466;-84
2023/02/09 00:24:55;;;;;;;25.05;12.90;;;;;;;-1.53;100.00;103032.13;5083364;28;20029;-88
2023/02/09 00:27:20;;;;;;;25.15;12.82;;;;;;;-1.58;100.00;103028.19;5084825;28;20592;-84
2023/02/09 00:29:46;;;;;;;26.15;12.27;;;;;;;-1.59;100.00;103031.56;5083242;28;20032;-83
2023/02/09 00:32:11;;;;;;;25.73;12.60;;;;;;;-1.60;100.00;103029.75;5084505;28;20025;-86
2023/02/09 00:34:37;;;;;;;25.05;12.30;;;;;;;-1.68;98.21;103030.75;5086099;28;20035;-88
2023/02/09 00:37:03;;;;;;;24.95;12.38;;;;;;;-1.62;97.95;103031.28;5083003;28;20040;-86
2023/02/09 00:39:28;;;;;;;23.58;11.77;;;;;;;-1.69;93.49;103039.28;5086571;28;20108;-85
2023/02/09 00:42:06;;;;;;;25.85;12.02;;;;;;;-1.65;93.11;103044.88;5083427;28;20517;-82
2023/02/09 00:44:39;;;;;;;24.75;12.13;;;;;;;-1.66;93.46;103044.75;5082981;28;20025;-82
2023/02/09 00:47:06;;;;;;;25.70;11.80;;;;;;;-1.70;90.67;103048.78;5085788;28;20044;-84
2023/02/09 00:49:31;;;;;;;25.38;12.15;;;;;;;-1.70;90.29;103043.59;5082769;28;20024;-85
2023/02/09 00:51:57;;;;;;;24.65;12.10;;;;;;;-1.73;89.27;103043.31;5086409;28;20053;-86
2023/02/09 00:54:22;;;;;;;23.95;11.68;;;;;;;-1.79;86.95;103046.25;5083246;28;20418;-86
2023/02/09 00:56:48;;;;;;;24.67;11.90;;;;;;;-1.76;85.78;103045.63;5085131;28;20360;-87
2023/02/09 00:59:14;;;;;;;25.85;11.95;;;;;;;-1.77;86.69;103036.94;5084331;28;20455;-76
2023/02/09 01:01:40;;;;;;;24.15;11.40;;;;;;;-1.77;87.46;103036.94;5083588;28;20024;-76
2023/02/09 01:04:05;;;;;;;24.70;11.80;;;;;;;-1.85;86.41;103039.59;5085563;28;20036;-76
2023/02/09 01:06:31;;;;;;;24.23;12.25;;;;;;;-1.88;88.63;103042.81;5082390;28;20029;-76
2023/02/09 01:08:57;;;;;;;23.60;11.68;;;;;;;-1.92;88.85;103040.75;5082376;28;20040;-78
2023/02/09 01:11:26;;;;;;;24.58;11.35;;;;;;;-2.05;86.47;103038.72;5085385;28;20430;-89
2023/02/09 01:13:54;;;;;;;24.40;11.82;;;;;;;-2.02;89.74;103038.09;5081662;28;20467;-87
2023/02/09 01:16:20;;;;;;;24.90;11.68;;;;;;;-2.03;92.30;103025.91;5084739;28;20024;-90
2023/02/09 01:18:45;;;;;;;24.80;12.18;;;;;;;-2.13;90.21;103025.06;5082979;28;20086;-87
2023/02/09 01:21:12;;;;;;;24.63;12.23;;;;;;;-2.17;90.33;103028.16;5083434;28;20024;-89
2023/02/09 01:23:38;;;;;;;24.95;11.48;;;;;;;-2.20;89.05;103022.72;5084671;28;20031;-87
2023/02/09 01:26:06;;;;;;;24.77;11.30;;;;;;;-2.15;88.46;103030.91;5082467;28;20028;-88
2023/02/09 01:28:31;;;;;;;24.23;11.48;;;;;;;-2.18;92.37;103028.94;5085167;28;20024;-89
2023/02/09 01:30:57;;;;;;;24.23;11.43;;;;;;;-2.17;93.98;103028.16;5081940;28;20522;-90
2023/02/09 01:33:22;;;;;;;24.83;12.00;;;;;;;-2.16;94.63;103032.56;5085020;28;20108;-87
2023/02/09 01:35:48;;;;;;;26.08;12.20;;;;;;;-2.22;94.72;103029.41;5082805;28;20486;-75
2023/02/09 01:38:13;;;;;;;24.27;11.45;;;;;;;-2.32;96.15;103017.28;5083439;28;20043;-76
2023/02/09 01:40:45;;;;;;;24.75;12.13;;;;;;;-2.30;96.46;103025.19;5084453;28;20035;-79
2023/02/09 01:43:12;;;;;;;24.08;11.82;;;;;;;-2.35;96.42;103029.06;5082914;28;20095;-79
2023/02/09 01:45:54;;;;;;;25.23;11.63;;;;;;;-2.42;95.03;103031.88;5084427;28;20024;-77
2023/02/09 01:48:24;;;;;;;24.70;11.88;;;;;;;-2.38;95.94;103032.28;5082741;28;20040;-76
2023/02/09 01:50:53;;;;;;;24.48;11.73;;;;;;;-2.42;97.12;103029.28;5082798;28;20081;-75
2023/02/09 01:53:19;;;;;;;25.70;11.77;;;;;;;-2.53;96.98;103026.63;5083812;28;20020;-75
2023/02/09 01:56:09;;;;;;;24.90;11.95;;;;;;;-2.57;97.90;103027.09;5083285;28;20027;-76
2023/02/09 01:58:35;;;;;;;24.25;11.70;;;;;;;-2.58;95.27;103034.72;5081820;28;20021;-77
2023/02/09 02:01:00;;;;;;;24.48;11.85;;;;;;;-2.59;94.32;103020.88;5085194;28;20483;-89
2023/02/09 02:03:27;;;;;;;24.52;11.40;;;;;;;-2.59;93.68;103019.94;5081470;28;20024;-88
2023/02/09 02:05:57;;;;;;;24.55;11.73;;;;;;;-2.60;93.62;103008.69;5082986;28;20036;-89
2023/02/09 02:08:23;;;;;;;24.98;11.93;;;;;;;-2.53;97.99;103021.44;5081787;28;20029;-86
2023/02/09 02:10:49;;;;;;;24.00;11.60;;;;;;;-2.64;95.01;103027.28;5083577;28;20050;-87
2023/02/09 02:13:14;;;;;;;24.27;11.32;;;;;;;-2.72;94.93;103018.81;5083048;28;20027;-87
2023/02/09 02:16:05;;;;;;;25.20;12.07;;;;;;;-2.75;94.44;103012.44;5081302;28;20025;-89
2023/02/09 02:18:49;;;;;;;23.40;11.38;;;;;;;-2.75;94.07;103017.59;5079966;28;20490;-88
2023/02/09 02:21:24;;;;;;;24.10;11.20;;;;;;;-2.78;92.25;103012.16;5082946;28;20028;-88
2023/02/09 02:24:11;;;;;;;23.65;11.18;;;;;;;-2.74;91.94;103016.84;5082463;28;20020;-85
2023/02/09 02:26:56;;;;;;;23.88;11.07;;;;;;;-2.73;93.76;103011.81;5084893;28;20040;-84
2023/02/09 02:30:19;;;;;;;24.70;10.93;;;;;;;-2.72;93.67;103010.13;5080969;28;20119;-86
2023/02/09 02:32:47;;;;;;;24.63;11.00;;;;;;;-2.78;92.44;103004.38;5051107;28;20036;-86
2023/02/09 02:35:28;;;;;;;23.40;10.48;;;;;;;-2.83;92.65;102999.69;5050688;28;20038;-86
2023/02/09 02:38:25;;;;;;;23.90;11.15;;;;;;;-2.85;95.11;102996.06;5070376;28;20052;-86
2023/02/09 02:41:08;;;;;;;23.67;10.20;;;;;;;-2.83;94.64;102999.69;5082975;28;20032;-88
2023/02/09 02:43:46;;;;;;;24.15;10.95;;;;;;;-2.84;95.81;102991.78;5081125;28;20020;-88
2023/02/09 02:46:25;;;;;;;24.58;11.35;;;;;;;-2.87;98.15;102986.31;5081973;28;20028;-88
2023/02/09 02:48:50;;;;;;;24.25;11.00;;;;;;;-2.93;98.93;102984.06;5083352;28;20418;-83
2023/02/09 02:51:26;;;;;;;25.33;11.48;;;;;;;-2.97;100.00;102981.97;5081398;28;20043;-89
2023/02/09 02:53:56;;;;;;;23.00;11.02;;;;;;;-3.02;100.00;102985.81;5083714;28;20028;-88
2023/02/09 02:56:30;;;;;;;24.40;11.40;;;;;;;-3.06;100.00;102974.25;5081845;28;20613;-89
2023/02/09 02:59:00;;;;;;;23.85;10.82;;;;;;;-3.07;100.00;102971.50;5084074;28;20024;-89
2023/02/09 03:01:32;;;;;;;23.70;10.93;;;;;;;-3.07;100.00;102974.09;5081472;28;20521;-88
2023/02/09 03:04:00;;;;;;;22.65;10.63;;;;;;;-3.09;100.00;102979.13;5081220;28;20021;-88
2023/02/09 03:06:26;;;;;;;23.50;10.52;;;;;;;-3.14;100.00;102979.50;5084292;28;20028;-87
2023/02/09 03:08:56;;;;;;;23.70;11.00;;;;;;;-3.26;100.00;102974.97;5081683;28;20062;-82
2023/02/09 03:11:25;;;;;;;24.25;11.32;;;;;;;-3.28;100.00;102978.19;5083235;28;20033;-85
2023/02/09 03:14:19;;;;;;;24.23;11.18;;;;;;;-3.30;100.00;102988.38;5081623;28;20103;-88
2023/02/09 03:16:53;;;;;;;24.25;11.32;;;;;;;-3.27;100.00;102987.78;5082081;28;20025;-90
2023/02/09 03:20:00;;;;;;;24.13;11.23;;;;;;;-3.33;100.00;102990.69;5081735;28;20470;-90
2023/02/09 03:22:37;;;;;;;23.35;10.80;;;;;;;-3.28;100.00;102992.00;5074884;28;20037;-86
2023/02/09 03:25:41;;;;;;;24.50;10.40;;;;;;;-3.27;100.00;102983.50;5081018;28;20033;-89
2023/02/09 03:28:14;;;;;;;23.13;10.45;;;;;;;-3.21;100.00;102976.31;5075820;28;20486;-85
2023/02/09 03:30:41;;;;;;;24.02;10.88;;;;;;;-3.21;100.00;102978.00;5081393;28;20360;-76
2023/02/09 03:33:19;;;;;;;23.88;10.77;;;;;;;-3.14;100.00;102976.91;5083396;28;20131;-76
2023/02/09 03:35:51;;;;;;;22.38;10.60;;;;;;;-3.13;100.00;102973.53;5081971;28;20104;-75
2023/02/09 03:38:16;;;;;;;24.60;10.38;;;;;;;-3.22;100.00;102977.09;5081826;28;20447;-75
2023/02/09 03:40:42;;;;;;;22.98;10.23;;;;;;;-3.23;100.00;102975.25;5081774;28;20109;-78
2023/02/09 03:43:07;;;;;;;23.65;10.50;;;;;;;-3.30;100.00;102977.13;5083143;28;20039;-78
2023/02/09 03:45:33;;;;;;;22.92;10.23;;;;;;;-3.29;100.00;102974.69;5080325;28;20029;-77
2023/02/09 03:47:58;;;;;;;23.67;10.18;;;;;;;-3.25;100.00;102968.13;5084037;28;20024;-79
2023/02/09 03:50:23;;;;;;;24.05;10.55;;;;;;;-3.26;100.00;102964.63;5081834;28;20485;-78
2023/02/09 03:52:49;;;;;;;24.20;11.07;;;;;;;-3.26;100.00;102967.22;5086330;28;20060;-77
2023/02/09 03:55:15;;;;;;;23.10;10.15;;;;;;;-3.28;100.00;102965.25;5085673;28;20058;-76
2023/02/09 03:57:40;;;;;;;24.02;10.40;;;;;;;-3.30;100.00;102962.50;5083460;28;20033;-77
2023/02/09 04:00:06;;;;;;;23.40;9.90;;;;;;;-3.35;100.00;102958.56;5087182;28;20027;-75
2023/02/09 04:02:32;;;;;;;23.33;10.10;;;;;;;-3.36;100.00;102954.19;5083564;28;20119;-76
2023/02/09 04:04:57;;;;;;;22.25;9.90;;;;;;;-3.40;100.00;102944.31;5085736;28;20489;-75
2023/02/09 04:07:23;;;;;;;22.63;9.60;;;;;;;-3.40;100.00;102955.56;5084641;28;20024;-76
2023/02/09 04:09:48;;;;;;;23.52;10.43;;;;;;;-3.34;100.00;102953.53;5085519;28;20032;-90
2023/02/09 04:12:13;;;;;;;23.80;10.07;;;;;;;-3.40;100.00;102936.53;5085930;28;20474;-87
2023/02/09 04:14:39;;;;;;;22.77;10.38;;;;;;;-3.36;100.00;102930.91;5084300;28;20471;-90
2023/02/09 04:17:04;;;;;;;22.75;10.07;;;;;;;-3.29;100.00;102937.53;5086863;28;20028;-90
2023/02/09 04:19:29;;;;;;;23.40;10.40;;;;;;;-3.28;100.00;102927.34;5083479;28;20375;-90
2023/02/09 04:21:55;;;;;;;22.95;9.77;;;;;;;-3.28;100.00;102922.16;5086442;28;20028;-85
2023/02/09 04:24:20;;;;;;;23.52;9.95;;;;;;;-3.30;100.00;102912.47;5084514;28;20024;-90
2023/02/09 04:26:46;;;;;;;23.15;10.20;;;;;;;-3.25;100.00;102904.31;5085079;28;20099;-90
2023/02/09 04:29:11;;;;;;;23.30;9.98;;;;;;;-3.21;100.00;102916.78;5085763;28;20043;-89
2023/02/09 04:31:37;;;;;;;23.20;9.80;;;;;;;-3.18;100.00;102924.84;5083350;28;20142;-84
2023/02/09 04:34:02;;;;;;;23.90;10.20;;;;;;;-3.12;100.00;102927.09;5085496;28;20024;-86
2023/02/09 04:36:28;;;;;;;22.23;9.48;;;;;;;-3.09;100.00;102927.38;5083048;28;20063;-91
2023/02/09 04:38:53;;;;;;;23.55;10.05;;;;;;;-3.05;100.00;102926.00;5085530;28;20044;-88
2023/02/09 04:41:19;;;;;;;23.75;9.65;;;;;;;-3.05;100.00;102928.59;5083430;28;20032;-89
2023/02/09 04:43:45;;;;;;;23.45;10.00;;;;;;;-3.05;100.00;102915.63;5084671;28;20129;-81
2023/02/09 04:46:16;;;;;;;22.55;9.75;;;;;;;-3.05;100.00;102910.47;5085572;28;20028;-86
2023/02/09 04:48:41;;;;;;;23.02;10.00;;;;;;;-3.08;100.00;102905.00;5083937;28;20028;-87
2023/02/09 04:51:07;;;;;;;26.95;10.27;;;;;;;-3.13;100.00;102912.34;5085911;28;20082;-88
2023/02/09 04:53:33;;;;;;;22.73;9.82;;;;;;;-3.13;100.00;102912.34;5082836;28;20028;-87
2023/02/09 04:55:58;;;;;;;22.48;10.10;;;;;;;-3.06;100.00;102914.75;5086313;28;20028;-89
2023/02/09 05:01:12;;;;;;;23.88;9.90;;;;;;;-3.01;100.00;102930.69;5083341;28;20090;-77
2023/02/09 05:03:38;;;;;;;23.30;9.90;;;;;;;-2.99;100.00;102932.63;5085052;28;20024;-76
2023/02/09 05:06:04;;;;;;;23.50;10.10;;;;;;;-3.06;100.00;102921.56;5082764;28;20090;-79
2023/02/09 05:08:30;;;;;;;23.60;10.45;;;;;;;-3.02;100.00;102928.84;5082320;28;20078;-76
2023/02/09 05:10:56;;;;;;;23.77;10.32;;;;;;;-3.02;100.00;102934.03;5085226;28;20032;-75
2023/02/09 05:13:22;;;;;;;22.45;10.18;;;;;;;-3.04;100.00;102931.31;5083685;28;20073;-76
2023/02/09 05:15:48;;;;;;;23.63;10.27;;;;;;;-3.03;100.00;102924.44;5084163;28;20025;-79
2023/02/09 05:18:14;;;;;;;23.48;10.25;;;;;;;-3.08;100.00;102929.19;5084356;28;20467;-79
2023/02/09 05:20:43;;;;;;;25.40;11.02;;;;;;;-3.09;100.00;102931.66;5083034;28;20047;-78
2023/02/09 05:23:09;;;;;;;23.65;10.68;;;;;;;-3.12;100.00;102927.09;5083481;28;20024;-90
2023/02/09 05:25:34;;;;;;;23.90;10.43;;;;;;;-3.08;100.00;102933.47;5082170;28;20118;-89
2023/02/09 05:28:00;;;;;;;24.17;10.80;;;;;;;-3.02;100.00;102940.13;5082183;28;20107;-91
2023/02/09 05:30:25;;;;;;;23.33;10.07;;;;;;;-3.00;100.00;102941.19;5085001;28;20024;-88
2023/02/09 05:32:51;;;;;;;23.13;10.40;;;;;;;-3.01;100.00;102935.88;5083131;28;20032;-88
2023/02/09 05:35:17;;;;;;;23.98;10.10;;;;;;;-3.01;100.00;102936.75;5083848;28;20078;-89
2023/02/09 05:37:42;;;;;;;23.10;10.27;;;;;;;-2.90;100.00;102948.09;5084208;28;20044;-90
2023/02/09 05:40:08;;;;;;;23.45;10.23;;;;;;;-2.94;100.00;102951.19;5082209;28;20395;-89
2023/02/09 05:42:33;;;;;;;23.95;10.45;;;;;;;-2.99;100.00;102966.28;5085521;28;20020;-90
2023/02/09 05:44:58;;;;;;;23.90;10.65;;;;;;;-3.08;100.00;102959.34;5081699;28;20060;-84
2023/02/09 05:47:24;;;;;;;22.83;9.88;;;;;;;-3.12;100.00;102954.66;5084561;28;20051;-90
2023/02/09 05:49:51;;;;;;;24.27;10.68;;;;;;;-3.12;100.00;102957.25;5081751;28;20032;-84
2023/02/09 05:52:16;;;;;;;23.88;10.50;;;;;;;-3.10;100.00;102955.69;5083326;28;20063;-88
2023/02/09 05:54:42;;;;;;;24.13;10.65;;;;;;;-3.08;100.00;102964.53;5084294;28;20425;-89
2023/02/09 05:57:08;;;;;;;23.92;10.55;;;;;;;-3.08;100.00;102957.66;5081977;28;20039;-87
2023/02/09 05:59:34;;;;;;;24.27;10.45;;;;;;;-3.09;100.00;102957.53;5081642;28;20458;-89
2023/02/09 06:02:00;;;;;;;23.13;10.10;;;;;;;-3.03;100.00;102956.44;5082167;28;20024;-86
2023/02/09 06:04:26;;;;;;;24.58;10.70;;;;;;;-3.07;100.00;102954.31;5082516;28;20375;-89
2023/02/09 06:06:52;;;;;;;24.90;11.27;;;;;;;-3.09;100.00;102950.66;5082940;28;20081;-89
2023/02/09 06:09:18;;;;;;;25.80;11.45;;;;;;;-3.10;100.00;102942.75;5081742;28;20032;-84
2023/02/09 06:11:44;;;;;;;24.88;11.77;;;;;;;-3.10;100.00;102937.59;5084804;28;20054;-84
2023/02/09 06:14:09;;;;;;;25.02;11.50;;;;;;;-3.17;100.00;102924.06;5080468;28;20056;-87
2023/02/09 06:16:35;;;;;;;24.75;11.10;;;;;;;-3.16;100.00;102919.81;5084189;28;20047;-86
2023/02/09 06:19:00;;;;;;;24.73;11.05;;;;;;;-3.20;100.00;102917.72;5072813;28;20032;-86
2023/02/09 06:21:25;;;;;;;23.90;11.30;;;;;;;-3.24;100.00;102921.69;5081586;28;20025;-86
2023/02/09 06:23:51;;;;;;;25.00;11.23;;;;;;;-3.29;100.00;102924.59;5083828;28;20107;-87
2023/02/09 06:26:17;;;;;;;25.80;11.52;;;;;;;-3.30;100.00;102930.56;5081135;28;20461;-86
2023/02/09 06:28:42;;;;;;;24.33;11.35;;;;;;;-3.31;100.00;102923.56;5084431;28;20024;-84
2023/02/09 06:31:08;;;;;;;26.40;11.82;;;;;;;-3.35;100.00;102933.63;5078842;28;20047;-75
2023/02/09 06:33:35;;;;;;;24.77;11.75;;;;;;;-3.35;100.00;102932.69;5090382;28;20024;-74
2023/02/09 06:36:00;;;;;;;26.50;12.10;;;;;;;-3.30;100.00;102947.00;5090815;28;20020;-74
2023/02/09 06:38:28;;;;;;;25.90;12.13;;;;;;;-3.29;100.00;102953.06;5091557;28;20052;-75
2023/02/09 06:40:54;;;;;;;26.67;12.32;;;;;;;-3.16;100.00;102959.53;5091729;28;20024;-74
2023/02/09 06:43:19;;;;;;;25.52;12.02;;;;;;;-3.16;100.00;102964.72;5090932;28;20093;-74
2023/02/09 06:45:44;;;;;;;23.98;10.93;;;;;;;-3.16;100.00;102975.06;5091640;28;20035;-74
2023/02/09 06:48:10;;;;;;;26.25;11.95;;;;;;;-3.17;100.00;102968.06;5089806;28;20028;-75
2023/02/09 06:50:37;;;;;;;25.85;11.90;;;;;;;-3.16;100.00;102961.19;5090646;28;20028;-75
2023/02/09 06:53:03;;;;;;;25.05;11.50;;;;;;;-3.10;100.00;102973.81;5091718;28;20497;-75
2023/02/09 06:55:29;;;;;;;25.33;11.98;;;;;;;-3.10;100.00;102976.41;5092083;28;20067;-76
2023/02/09 06:57:55;;;;;;;24.02;11.27;;;;;;;-3.13;100.00;102978.69;5090917;28;20460;-74
2023/02/09 07:00:21;;;;;;;27.50;12.45;;;;;;;-3.10;100.00;102986.75;5091319;28;20024;-76
2023/02/09 07:02:46;;;;;;;27.27;13.35;;;;;;;-3.13;100.00;102992.56;5091485;28;20048;-76
2023/02/09 07:05:13;;;;;;;26.63;12.98;;;;;;;-3.20;100.00;103000.53;5091937;28;20055;-75
2023/02/09 07:07:38;;;;;;;27.08;13.05;;;;;;;-3.23;100.00;102998.53;5091062;28;20515;-74
2023/02/09 07:10:05;;;;;;;25.55;12.38;;;;;;;-3.33;100.00;103009.69;5091594;28;20033;-74
2023/02/09 07:12:31;;;;;;;27.25;12.38;;;;;;;-3.35;100.00;103013.81;5090580;28;20162;-75
2023/02/09 07:14:56;;;;;;;25.73;12.73;;;;;;;-3.40;100.00;103011.56;5091724;28;20032;-76
2023/02/09 07:17:21;;;;;;;24.73;11.57;;;;;;;-3.40;100.00;103014.16;5091069;28;20047;-74
2023/02/09 07:19:47;;;;;;;26.45;12.32;;;;;;;-3.38;100.00;103012.59;5091229;28;20020;-76
2023/02/09 07:22:12;;;;;;;26.83;12.55;;;;;;;-3.34;100.00;103006.97;5091517;28;20028;-74
2023/02/09 07:24:38;;;;;;;26.48;12.55;;;;;;;-3.26;100.00;103016.38;5091379;28;20024;-74
2023/02/09 07:27:04;;;;;;;25.85;12.50;;;;;;;-3.26;100.00;103011.19;5094821;28;20024;-73
2023/02/09 07:29:31;;;;;;;25.95;12.65;;;;;;;-3.21;100.00;103017.69;5095741;28;20056;-75
2023/02/09 07:31:56;;;;;;;26.77;12.65;;;;;;;-3.18;100.00;103014.50;5094469;28;20036;-74
2023/02/09 07:34:22;;;;;;;26.33;12.88;;;;;;;-3.19;100.00;103018.78;5095207;28;20103;-74
2023/02/09 07:36:47;;;;;;;27.08;13.23;;;;;;;-3.17;100.00;103012.06;5093591;28;20024;-76
2023/02/09 07:39:12;;;;;;;26.92;13.13;;;;;;;-3.09;100.00;103019.63;5095108;28;20102;-72
2023/02/09 07:41:38;;;;;;;25.67;12.70;;;;;;;-3.14;100.00;102997.59;5095271;28;20032;-76
2023/02/09 07:44:03;;;;;;;25.73;12.98;;;;;;;-3.04;100.00;103000.28;5094670;28;20387;-75
2023/02/09 07:46:29;;;;;;;25.80;12.90;;;;;;;-2.99;100.00;103002.50;5093440;28;20490;-73
2023/02/09 07:48:56;;;;;;;26.33;13.13;;;;;;;-2.93;100.00;103015.13;5094960;28;20032;-74
2023/02/09 07:51:25;;;;;;;28.17;13.13;;;;;;;-2.91;100.00;103004.91;5094971;28;20032;-76
2023/02/09 07:53:52;;;;;;;27.05;13.32;;;;;;;-2.89;100.00;103011.16;5095232;28;20032;-74
2023/02/09 07:56:17;;;;;;;26.48;13.27;;;;;;;-2.85;100.00;103006.41;5094427;28;21576;-75
2023/02/09 07:58:43;;;;;;;27.63;13.38;;;;;;;-2.78;100.00;103004.38;5091601;28;20107;-73
2023/02/09 08:01:10;;;;;;;25.92;13.38;;;;;;;-2.77;100.00;103013.97;5085979;28;20433;-85
2023/02/09 08:03:38;;;;;;;25.65;13.65;;;;;;;-2.68;100.00;103002.81;5092626;28;20435;-80
2023/02/09 08:06:09;;;;;;;26.90;13.38;;;;;;;-2.63;100.00;103008.41;5095131;28;20035;-87
2023/02/09 08:08:35;;;;;;;27.52;13.57;;;;;;;-2.51;100.00;102998.25;5094112;28;20392;-82
2023/02/09 08:11:03;;;;;;;26.67;13.25;;;;;;;-2.45;100.00;102998.81;5093602;28;20028;-73
2023/02/09 08:13:32;;;;;;;27.25;13.57;;;;;;;-2.36;100.00;103019.47;5094514;28;20032;-74
2023/02/09 08:16:03;;;;;;;27.67;14.55;;;;;;;-2.31;100.00;103008.75;5094881;28;20040;-75
2023/02/09 08:18:38;;;;;;;28.33;13.75;;;;;;;-2.22;100.00;103011.28;5094517;28;20034;-74
2023/02/09 08:21:07;;;;;;;27.88;13.95;;;;;;;-2.15;100.00;103016.25;5093963;28;20077;-74
2023/02/09 08:23:34;;;;;;;28.20;13.98;;;;;;;-2.05;100.00;103022.25;5094173;28;20043;-74
2023/02/09 08:26:05;;;;;;;27.15;13.80;;;;;;;-1.96;100.00;103028.28;5094193;28;20047;-74
2023/02/09 08:28:31;;;;;;;27.30;14.00;;;;;;;-1.89;100.00;103029.72;5093985;28;20024;-74
2023/02/09 08:30:57;;;;;;;29.60;15.38;;;;;;;-1.81;100.00;103013.19;5093954;28;20032;-90
2023/02/09 08:33:22;;;;;;;27.70;13.95;;;;;;;-1.72;100.00;103002.72;5093220;28;20111;-89
2023/02/09 08:35:51;;;;;;;27.65;13.90;;;;;;;-1.64;100.00;103009.50;5094180;28;20494;-93
2023/02/09 08:38:17;;;;;;;27.05;14.35;;;;;;;-1.55;100.00;102997.34;5090923;28;20044;-85
2023/02/09 08:40:44;;;;;;;27.27;13.52;;;;;;;-1.48;100.00;102989.31;5090710;28;20048;-74
2023/02/09 08:43:11;;;;;;;26.17;13.38;;;;;;;-1.38;100.00;102991.03;5086215;28;20500;-74
2023/02/09 08:45:39;;;;;;;27.75;14.10;;;;;;;-1.31;100.00;102989.84;5083729;28;20036;-73
2023/02/09 08:48:10;;;;;;;26.27;12.98;;;;;;;-1.17;100.00;102994.56;5085147;28;20021;-73
2023/02/09 08:50:37;;;;;;;27.10;13.18;;;;;;;-1.17;100.00;102980.69;5083958;28;20035;-78
2023/02/09 08:53:03;;;;;;;26.52;13.38;;;;;;;-1.05;100.00;102984.31;5084842;28;20357;-73
2023/02/09 08:55:30;;;;;;;27.13;13.75;;;;;;;-1.01;100.00;102973.41;5084562;28;20490;-78
2023/02/09 08:57:55;;;;;;;25.95;13.18;;;;;;;-0.86;100.00;102988.50;5084020;28;20024;-74
2023/02/09 09:00:21;;;;;;;26.45;12.68;;;;;;;-0.75;100.00;102987.72;5090426;28;20020;-73
2023/02/09 09:02:46;;;;;;;27.88;13.75;;;;;;;-0.64;100.00;102986.00;5073346;28;20032;-73
2023/02/09 09:05:11;;;;;;;26.65;13.02;;;;;;;-0.47;100.00;102975.34;5093062;28;20394;-72
2023/02/09 09:07:37;;;;;;;26.95;14.05;;;;;;;-0.43;100.00;102977.41;5093512;28;20052;-75
2023/02/09 09:10:03;;;;;;;26.58;13.57;;;;;;;-0.27;100.00;102999.50;5093279;28;20031;-74
2023/02/09 09:12:29;;;;;;;26.70;13.05;;;;;;;-0.11;100.00;102996.47;5093380;28;20036;-74
2023/02/09 09:14:55;;;;;;;26.75;13.52;;;;;;;0.00;100.00;103000.88;5093388;28;20479;-74
2023/02/09 09:17:21;;;;;;;26.45;12.35;;;;;;;0.02;100.00;102999.28;5093204;28;20028;-74
2023/02/09 09:19:46;;;;;;;25.60;13.20;;;;;;;0.02;100.00;103001.00;5093755;28;20034;-73
2023/02/09 09:22:12;;;;;;;26.10;13.13;;;;;;;0.13;96.49;103008.88;5093494;28;20437;-75
2023/02/09 09:24:40;;;;;;;25.83;12.95;;;;;;;0.12;100.00;103017.47;5092652;28;20471;-78
2023/02/09 09:27:07;;;;;;;26.25;12.90;;;;;;;0.19;95.67;103018.88;5092361;28;20081;-74
2023/02/09 09:29:34;;;;;;;26.92;13.50;;;;;;;0.22;92.90;103008.72;5092977;28;20107;-87
2023/02/09 09:32:00;;;;;;;26.73;13.43;;;;;;;0.29;92.14;103003.22;5094513;28;20040;-84
2023/02/09 09:34:25;;;;;;;26.17;12.95;;;;;;;0.41;87.82;103015.38;5093940;28;20024;-83
2023/02/09 09:36:51;;;;;;;25.80;12.68;;;;;;;0.45;88.63;103023.59;5093516;28;20449;-83
2023/02/09 09:39:17;;;;;;;26.42;13.63;;;;;;;0.46;86.52;103020.19;5094491;28;20075;-87
2023/02/09 09:41:46;;;;;;;27.08;13.25;;;;;;;0.62;87.32;103014.50;5090267;28;20454;-86
2023/02/09 09:44:22;;;;;;;26.15;13.15;;;;;;;0.71;87.85;103005.63;5093472;28;20025;-86
2023/02/09 09:46:50;;;;;;;25.63;13.23;;;;;;;0.82;84.62;102995.25;5090579;28;20024;-86
2023/02/09 09:49:23;;;;;;;25.73;13.07;;;;;;;0.98;85.29;103007.78;5092774;28;20390;-81
2023/02/09 09:52:01;;;;;;;27.20;13.15;;;;;;;1.13;81.97;103005.44;5089318;28;20034;-89
2023/02/09 09:54:30;;;;;;;25.40;12.65;;;;;;;1.34;79.80;103011.41;5094074;28;20020;-85
2023/02/09 09:56:55;;;;;;;25.95;13.07;;;;;;;1.41;77.13;103023.19;5094537;28;20371;-81
2023/02/09 09:59:26;;;;;;;26.83;13.77;;;;;;;1.55;75.54;103024.25;5092714;28;20020;-84
2023/02/09 10:01:54;;;;;;;25.80;12.73;;;;;;;1.51;70.42;103017.88;5093193;28;20021;-81
2023/02/09 10:04:19;;;;;;;26.17;12.82;;;;;;;1.50;68.38;103020.38;5092073;28;20027;-76
2023/02/09 10:06:51;;;;;;;25.55;12.98;;;;;;;1.50;71.55;103023.91;5092159;28;20390;-75
2023/02/09 10:09:28;;;;;;;28.20;13.88;;;;;;;1.67;68.66;103030.41;5089388;28;20446;-75
2023/02/09 10:12:03;;;;;;;26.50;12.55;;;;;;;1.71;66.32;103032.44;5091808;28;20024;-75
2023/02/09 10:14:28;;;;;;;26.02;13.23;;;;;;;1.81;69.14;103035.75;5091978;28;20136;-74
2023/02/09 10:16:53;;;;;;;25.55;12.90;;;;;;;2.03;66.09;103033.06;5090505;28;20151;-76
2023/02/09 10:19:25;;;;;;;25.38;13.00;;;;;;;2.16;63.63;103043.59;5092313;28;20020;-74
2023/02/09 10:21:52;;;;;;;25.13;13.07;;;;;;;2.28;62.71;103033.13;5089909;28;20031;-74
2023/02/09 10:24:33;;;;;;;24.35;12.35;;;;;;;2.36;63.29;103026.78;5091956;28;20039;-76
2023/02/09 10:27:04;;;;;;;25.60;12.85;;;;;;;2.44;63.93;103024.72;5084735;28;20051;-80
2023/02/09 10:29:30;;;;;;;26.85;13.23;;;;;;;2.59;63.34;103036.28;5091935;28;20035;-79
2023/02/09 10:32:13;;;;;;;25.70;13.63;;;;;;;2.87;61.15;103029.47;5092449;28;20028;-85
2023/02/09 10:34:41;;;;;;;26.85;13.43;;;;;;;2.97;59.28;103034.56;5089826;28;20028;-85
2023/02/09 10:37:18;;;;;;;25.67;13.55;;;;;;;3.10;59.25;103032.03;5090693;28;20028;-86
2023/02/09 10:39:45;;;;;;;26.13;13.57;;;;;;;3.23;59.68;103033.78;5091569;28;20024;-83
2023/02/09 10:42:23;;;;;;;25.40;13.27;;;;;;;3.39;58.72;103046.19;5090047;28;20389;-85
2023/02/09 10:44:52;;;;;;;26.42;13.82;;;;;;;3.55;56.76;103047.25;5090874;28;20020;-82
2023/02/09 10:47:22;;;;;;;26.13;13.02;;;;;;;3.79;55.74;103048.00;5091803;28;20070;-87
2023/02/09 10:49:55;;;;;;;26.67;13.90;;;;;;;3.97;55.19;103048.31;5092040;28;20031;-84
2023/02/09 10:52:23;;;;;;;25.92;13.20;;;;;;;4.43;55.26;103061.81;5091206;28;20051;-82
2023/02/09 10:54:59;;;;;;;25.73;13.45;;;;;;;5.03;53.45;103063.00;5093223;28;20028;-87
2023/02/09 10:57:29;;;;;;;25.60;13.55;;;;;;;5.71;51.84;103054.00;5111744;28;20043;-83
2023/02/09 11:00:00;;;;;;;25.92;13.27;;;;;;;6.16;49.46;103046.16;5091029;28;20044;-74
2023/02/09 11:02:39;;;;;;;24.48;12.55;;;;;;;6.69;49.56;103049.09;5095139;28;20115;-74
2023/02/09 11:05:19;;;;;;;26.52;13.48;;;;;;;6.74;49.12;103056.41;5095642;28;20129;-74
2023/02/09 11:07:50;;;;;;;26.20;13.52;;;;;;;6.44;48.20;103053.84;5093511;28;20043;-74
2023/02/09 11:10:16;;;;;;;26.00;13.40;;;;;;;7.23;48.28;103039.72;5095773;28;20059;-74
2023/02/09 11:12:42;;;;;;;26.02;13.35;;;;;;;8.30;45.85;103042.47;5095880;28;20071;-74
2023/02/09 11:15:13;;;;;;;25.23;13.63;;;;;;;8.59;44.51;103036.03;5090776;28;20031;-75
2023/02/09 11:17:48;;;;;;;25.83;13.70;;;;;;;8.10;44.33;103037.16;5092577;28;20024;-77